sensor_id;sensor_type;location;lat;lon;timestamp;P1;durP1;ratioP1;P2;durP2;ratioP2
74269;SDS011;62754;48.252;11.654;2023-03-23T00:02:08;5.45;;;2.42;;
74269;SDS011;62754;48.252;11.654;2023-03-23T00:04:34;4.63;;;2.63;;
74269;SDS011;62754;48.252;11.654;2023-03-23T00:07:00;4.93;;;2.45;;
74269;SDS011;62754;48.252;11.654;2023-03-23T00:09:25;5.45;;;2.33;;
74269;SDS011;62754;48.252;11.654;2023-03-23T00:11:54;5.30;;;2.22;;
74269;SDS011;62754;48.252;11.654;2023-03-23T00:14:20;7.05;;;2.30;;
74269;SDS011;62754;48.252;11.654;2023-03-23T00:16:45;6.63;;;2.70;;
74269;SDS011;62754;48.252;11.654;2023-03-23T00:19:11;5.90;;;2.30;;
74269;SDS011;62754;48.252;11.654;2023-03-23T00:21:38;5.72;;;2.75;;
74269;SDS011;62754;48.252;11.654;2023-03-23T00:26:36;6.90;;;2.60;;
74269;SDS011;62754;48.252;11.654;2023-03-23T00:29:04;3.65;;;2.08;;
74269;SDS011;62754;48.252;11.654;2023-03-23T00:31:30;6.25;;;2.50;;
74269;SDS011;62754;48.252;11.654;2023-03-23T00:33:57;4.10;;;2.70;;
74269;SDS011;62754;48.252;11.654;2023-03-23T00:36:23;7.65;;;2.42;;
74269;SDS011;62754;48.252;11.654;2023-03-23T00:38:49;6.35;;;2.80;;
74269;SDS011;62754;48.252;11.654;2023-03-23T00:41:15;5.85;;;2.30;;
74269;SDS011;62754;48.252;11.654;2023-03-23T00:43:41;6.68;;;2.60;;
74269;SDS011;62754;48.252;11.654;2023-03-23T00:46:07;4.68;;;2.42;;
74269;SDS011;62754;48.252;11.654;2023-03-23T00:48:32;4.57;;;2.45;;
74269;SDS011;62754;48.252;11.654;2023-03-23T00:50:58;8.23;;;3.13;;
74269;SDS011;62754;48.252;11.654;2023-03-23T00:53:24;6.15;;;3.70;;
74269;SDS011;62754;48.252;11.654;2023-03-23T00:55:50;5.32;;;3.00;;
74269;SDS011;62754;48.252;11.654;2023-03-23T00:58:16;5.95;;;2.40;;
74269;SDS011;62754;48.252;11.654;2023-03-23T01:00:41;4.28;;;2.20;;
74269;SDS011;62754;48.252;11.654;2023-03-23T01:03:08;8.23;;;2.90;;
74269;SDS011;62754;48.252;11.654;2023-03-23T01:05:35;6.25;;;3.10;;
74269;SDS011;62754;48.252;11.654;2023-03-23T01:10:28;6.38;;;2.85;;
74269;SDS011;62754;48.252;11.654;2023-03-23T01:12:54;5.32;;;2.45;;
74269;SDS011;62754;48.252;11.654;2023-03-23T01:15:20;8.80;;;5.00;;
74269;SDS011;62754;48.252;11.654;2023-03-23T01:17:46;8.45;;;4.57;;
74269;SDS011;62754;48.252;11.654;2023-03-23T01:20:13;9.25;;;4.30;;
74269;SDS011;62754;48.252;11.654;2023-03-23T01:22:41;6.45;;;3.35;;
74269;SDS011;62754;48.252;11.654;2023-03-23T01:25:08;5.53;;;2.70;;
74269;SDS011;62754;48.252;11.654;2023-03-23T01:27:35;4.03;;;3.03;;
74269;SDS011;62754;48.252;11.654;2023-03-23T01:30:01;4.78;;;2.97;;
74269;SDS011;62754;48.252;11.654;2023-03-23T01:32:28;5.57;;;2.80;;
74269;SDS011;62754;48.252;11.654;2023-03-23T01:34:54;4.13;;;2.50;;
74269;SDS011;62754;48.252;11.654;2023-03-23T01:37:19;4.55;;;2.40;;
74269;SDS011;62754;48.252;11.654;2023-03-23T01:39:45;3.95;;;2.30;;
74269;SDS011;62754;48.252;11.654;2023-03-23T01:42:11;4.60;;;1.92;;
74269;SDS011;62754;48.252;11.654;2023-03-23T01:47:03;3.47;;;1.85;;
74269;SDS011;62754;48.252;11.654;2023-03-23T01:49:33;4.40;;;2.60;;
74269;SDS011;62754;48.252;11.654;2023-03-23T01:52:04;3.15;;;1.73;;
74269;SDS011;62754;48.252;11.654;2023-03-23T01:54:39;4.05;;;2.03;;
74269;SDS011;62754;48.252;11.654;2023-03-23T01:57:07;4.55;;;1.90;;
74269;SDS011;62754;48.252;11.654;2023-03-23T01:59:35;5.90;;;1.98;;
74269;SDS011;62754;48.252;11.654;2023-03-23T02:02:01;2.97;;;1.70;;
74269;SDS011;62754;48.252;11.654;2023-03-23T02:04:27;4.03;;;1.75;;
74269;SDS011;62754;48.252;11.654;2023-03-23T02:06:54;3.60;;;1.80;;
74269;SDS011;62754;48.252;11.654;2023-03-23T02:09:21;4.35;;;2.03;;
74269;SDS011;62754;48.252;11.654;2023-03-23T02:11:47;3.72;;;1.70;;
74269;SDS011;62754;48.252;11.654;2023-03-23T02:19:41;3.40;;;1.90;;
74269;SDS011;62754;48.252;11.654;2023-03-23T02:22:34;5.38;;;1.95;;
74269;SDS011;62754;48.252;11.654;2023-03-23T02:33:39;4.43;;;1.85;;
74269;SDS011;62754;48.252;11.654;2023-03-23T02:39:08;8.82;;;2.50;;
74269;SDS011;62754;48.252;11.654;2023-03-23T02:44:35;4.70;;;1.90;;
74269;SDS011;62754;48.252;11.654;2023-03-23T02:47:06;4.50;;;2.30;;
74269;SDS011;62754;48.252;11.654;2023-03-23T02:49:36;4.13;;;2.47;;
74269;SDS011;62754;48.252;11.654;2023-03-23T02:52:07;5.18;;;2.20;;
74269;SDS011;62754;48.252;11.654;2023-03-23T02:54:36;4.68;;;2.20;;
74269;SDS011;62754;48.252;11.654;2023-03-23T02:57:02;6.10;;;2.03;;
74269;SDS011;62754;48.252;11.654;2023-03-23T02:59:28;5.80;;;2.33;;
74269;SDS011;62754;48.252;11.654;2023-03-23T03:01:55;3.95;;;2.08;;
74269;SDS011;62754;48.252;11.654;2023-03-23T03:04:35;3.53;;;2.00;;
74269;SDS011;62754;48.252;11.654;2023-03-23T03:15:19;5.90;;;2.28;;
74269;SDS011;62754;48.252;11.654;2023-03-23T03:17:57;4.50;;;2.20;;
74269;SDS011;62754;48.252;11.654;2023-03-23T03:20:25;4.35;;;2.25;;
74269;SDS011;62754;48.252;11.654;2023-03-23T03:22:52;4.03;;;2.20;;
74269;SDS011;62754;48.252;11.654;2023-03-23T03:25:19;5.68;;;2.28;;
74269;SDS011;62754;48.252;11.654;2023-03-23T03:27:45;4.68;;;1.92;;
74269;SDS011;62754;48.252;11.654;2023-03-23T03:30:13;4.88;;;2.17;;
74269;SDS011;62754;48.252;11.654;2023-03-23T03:32:47;4.35;;;1.98;;
74269;SDS011;62754;48.252;11.654;2023-03-23T03:35:15;5.22;;;2.33;;
74269;SDS011;62754;48.252;11.654;2023-03-23T03:37:41;3.72;;;2.00;;
74269;SDS011;62754;48.252;11.654;2023-03-23T03:40:17;4.65;;;2.30;;
74269;SDS011;62754;48.252;11.654;2023-03-23T03:42:44;4.75;;;2.13;;
74269;SDS011;62754;48.252;11.654;2023-03-23T03:45:14;3.78;;;1.98;;
74269;SDS011;62754;48.252;11.654;2023-03-23T03:47:42;4.38;;;2.10;;
74269;SDS011;62754;48.252;11.654;2023-03-23T03:50:08;3.38;;;1.83;;
74269;SDS011;62754;48.252;11.654;2023-03-23T03:52:34;5.00;;;2.55;;
74269;SDS011;62754;48.252;11.654;2023-03-23T03:55:00;5.40;;;2.60;;
74269;SDS011;62754;48.252;11.654;2023-03-23T03:57:26;8.40;;;2.97;;
74269;SDS011;62754;48.252;11.654;2023-03-23T03:59:52;4.47;;;3.13;;
74269;SDS011;62754;48.252;11.654;2023-03-23T04:02:18;5.45;;;2.90;;
74269;SDS011;62754;48.252;11.654;2023-03-23T04:04:44;9.52;;;3.10;;
74269;SDS011;62754;48.252;11.654;2023-03-23T04:07:10;8.45;;;2.80;;
74269;SDS011;62754;48.252;11.654;2023-03-23T04:09:35;6.65;;;2.80;;
74269;SDS011;62754;48.252;11.654;2023-03-23T04:12:01;5.70;;;2.40;;
74269;SDS011;62754;48.252;11.654;2023-03-23T04:14:27;5.60;;;2.13;;
74269;SDS011;62754;48.252;11.654;2023-03-23T04:16:53;6.65;;;2.60;;
74269;SDS011;62754;48.252;11.654;2023-03-23T04:19:19;4.68;;;2.30;;
74269;SDS011;62754;48.252;11.654;2023-03-23T04:21:44;6.35;;;2.15;;
74269;SDS011;62754;48.252;11.654;2023-03-23T04:24:10;6.32;;;2.30;;
74269;SDS011;62754;48.252;11.654;2023-03-23T04:26:36;8.02;;;2.40;;
74269;SDS011;62754;48.252;11.654;2023-03-23T04:29:02;3.85;;;1.98;;
74269;SDS011;62754;48.252;11.654;2023-03-23T04:31:27;3.33;;;1.88;;
74269;SDS011;62754;48.252;11.654;2023-03-23T04:33:53;3.63;;;1.83;;
74269;SDS011;62754;48.252;11.654;2023-03-23T04:36:19;4.63;;;2.50;;
74269;SDS011;62754;48.252;11.654;2023-03-23T04:38:45;4.40;;;2.05;;
74269;SDS011;62754;48.252;11.654;2023-03-23T04:41:11;6.00;;;1.77;;
74269;SDS011;62754;48.252;11.654;2023-03-23T04:43:37;8.20;;;2.30;;
74269;SDS011;62754;48.252;11.654;2023-03-23T04:46:02;3.45;;;2.10;;
74269;SDS011;62754;48.252;11.654;2023-03-23T04:48:29;3.53;;;2.13;;
74269;SDS011;62754;48.252;11.654;2023-03-23T04:58:13;5.60;;;1.95;;
74269;SDS011;62754;48.252;11.654;2023-03-23T05:00:39;5.32;;;2.40;;
74269;SDS011;62754;48.252;11.654;2023-03-23T05:05:31;3.95;;;1.90;;
74269;SDS011;62754;48.252;11.654;2023-03-23T05:07:57;4.05;;;2.38;;
74269;SDS011;62754;48.252;11.654;2023-03-23T05:10:24;4.88;;;2.33;;
74269;SDS011;62754;48.252;11.654;2023-03-23T05:17:42;6.72;;;2.35;;
74269;SDS011;62754;48.252;11.654;2023-03-23T05:20:09;4.13;;;2.38;;
74269;SDS011;62754;48.252;11.654;2023-03-23T05:22:37;4.45;;;2.05;;
74269;SDS011;62754;48.252;11.654;2023-03-23T05:25:03;4.40;;;1.95;;
74269;SDS011;62754;48.252;11.654;2023-03-23T05:27:30;4.82;;;2.00;;
74269;SDS011;62754;48.252;11.654;2023-03-23T05:29:56;5.15;;;2.03;;
74269;SDS011;62754;48.252;11.654;2023-03-23T05:32:22;4.43;;;2.05;;
74269;SDS011;62754;48.252;11.654;2023-03-23T05:34:48;6.32;;;2.20;;
74269;SDS011;62754;48.252;11.654;2023-03-23T05:37:14;5.15;;;2.13;;
74269;SDS011;62754;48.252;11.654;2023-03-23T05:39:39;4.20;;;2.10;;
74269;SDS011;62754;48.252;11.654;2023-03-23T05:42:05;6.03;;;2.40;;
74269;SDS011;62754;48.252;11.654;2023-03-23T05:44:31;8.82;;;2.10;;
74269;SDS011;62754;48.252;11.654;2023-03-23T05:46:57;6.38;;;2.50;;
74269;SDS011;62754;48.252;11.654;2023-03-23T05:49:23;8.35;;;2.80;;
74269;SDS011;62754;48.252;11.654;2023-03-23T05:51:48;7.90;;;2.80;;
74269;SDS011;62754;48.252;11.654;2023-03-23T05:54:14;6.47;;;1.95;;
74269;SDS011;62754;48.252;11.654;2023-03-23T05:56:40;5.22;;;2.50;;
74269;SDS011;62754;48.252;11.654;2023-03-23T05:59:06;5.32;;;1.88;;
74269;SDS011;62754;48.252;11.654;2023-03-23T06:01:32;4.40;;;1.80;;
74269;SDS011;62754;48.252;11.654;2023-03-23T06:03:58;4.05;;;1.98;;
74269;SDS011;62754;48.252;11.654;2023-03-23T06:06:24;2.70;;;1.70;;
74269;SDS011;62754;48.252;11.654;2023-03-23T06:08:51;7.20;;;2.25;;
74269;SDS011;62754;48.252;11.654;2023-03-23T06:11:17;2.92;;;1.50;;
74269;SDS011;62754;48.252;11.654;2023-03-23T06:13:43;3.13;;;1.80;;
74269;SDS011;62754;48.252;11.654;2023-03-23T06:16:08;4.70;;;1.88;;
74269;SDS011;62754;48.252;11.654;2023-03-23T06:18:34;4.15;;;1.83;;
74269;SDS011;62754;48.252;11.654;2023-03-23T06:21:00;8.25;;;1.75;;
74269;SDS011;62754;48.252;11.654;2023-03-23T06:23:26;4.03;;;1.95;;
74269;SDS011;62754;48.252;11.654;2023-03-23T06:25:56;4.30;;;1.83;;
74269;SDS011;62754;48.252;11.654;2023-03-23T06:28:25;3.95;;;1.52;;
74269;SDS011;62754;48.252;11.654;2023-03-23T06:30:51;5.03;;;2.15;;
74269;SDS011;62754;48.252;11.654;2023-03-23T06:33:16;3.33;;;1.90;;
74269;SDS011;62754;48.252;11.654;2023-03-23T06:35:42;5.25;;;1.80;;
74269;SDS011;62754;48.252;11.654;2023-03-23T06:38:08;4.10;;;2.10;;
74269;SDS011;62754;48.252;11.654;2023-03-23T06:40:34;3.17;;;1.95;;
74269;SDS011;62754;48.252;11.654;2023-03-23T06:43:00;3.38;;;1.75;;
74269;SDS011;62754;48.252;11.654;2023-03-23T06:45:26;4.32;;;2.03;;
74269;SDS011;62754;48.252;11.654;2023-03-23T06:47:52;4.55;;;1.90;;
74269;SDS011;62754;48.252;11.654;2023-03-23T06:50:17;6.70;;;2.00;;
74269;SDS011;62754;48.252;11.654;2023-03-23T06:52:47;6.15;;;2.22;;
74269;SDS011;62754;48.252;11.654;2023-03-23T06:55:14;5.20;;;1.90;;
74269;SDS011;62754;48.252;11.654;2023-03-23T06:57:41;3.97;;;1.90;;
74269;SDS011;62754;48.252;11.654;2023-03-23T07:00:07;5.05;;;1.80;;
74269;SDS011;62754;48.252;11.654;2023-03-23T07:02:33;7.05;;;2.28;;
74269;SDS011;62754;48.252;11.654;2023-03-23T07:04:59;3.72;;;1.65;;
74269;SDS011;62754;48.252;11.654;2023-03-23T07:07:25;5.43;;;1.85;;
74269;SDS011;62754;48.252;11.654;2023-03-23T07:09:51;3.90;;;1.58;;
74269;SDS011;62754;48.252;11.654;2023-03-23T07:12:16;3.85;;;1.80;;
74269;SDS011;62754;48.252;11.654;2023-03-23T07:14:42;4.90;;;2.10;;
74269;SDS011;62754;48.252;11.654;2023-03-23T07:17:08;3.72;;;1.80;;
74269;SDS011;62754;48.252;11.654;2023-03-23T07:19:34;6.25;;;1.75;;
74269;SDS011;62754;48.252;11.654;2023-03-23T07:21:59;4.97;;;2.05;;
74269;SDS011;62754;48.252;11.654;2023-03-23T07:24:25;4.47;;;2.13;;
74269;SDS011;62754;48.252;11.654;2023-03-23T07:26:51;4.28;;;1.58;;
74269;SDS011;62754;48.252;11.654;2023-03-23T07:29:17;5.05;;;1.98;;
74269;SDS011;62754;48.252;11.654;2023-03-23T07:31:43;6.57;;;2.03;;
74269;SDS011;62754;48.252;11.654;2023-03-23T07:34:08;4.07;;;1.75;;
74269;SDS011;62754;48.252;11.654;2023-03-23T07:36:34;4.25;;;2.05;;
74269;SDS011;62754;48.252;11.654;2023-03-23T07:39:00;6.00;;;1.70;;
74269;SDS011;62754;48.252;11.654;2023-03-23T07:41:26;3.28;;;1.77;;
74269;SDS011;62754;48.252;11.654;2023-03-23T07:43:51;4.20;;;1.45;;
74269;SDS011;62754;48.252;11.654;2023-03-23T07:46:17;4.78;;;1.80;;
74269;SDS011;62754;48.252;11.654;2023-03-23T07:48:43;4.07;;;1.58;;
74269;SDS011;62754;48.252;11.654;2023-03-23T07:51:09;6.05;;;2.00;;
74269;SDS011;62754;48.252;11.654;2023-03-23T07:53:34;5.25;;;1.80;;
74269;SDS011;62754;48.252;11.654;2023-03-23T07:56:00;5.35;;;1.73;;
74269;SDS011;62754;48.252;11.654;2023-03-23T07:58:26;5.28;;;2.10;;
74269;SDS011;62754;48.252;11.654;2023-03-23T08:00:52;3.28;;;2.00;;
74269;SDS011;62754;48.252;11.654;2023-03-23T08:03:18;4.53;;;2.08;;
74269;SDS011;62754;48.252;11.654;2023-03-23T08:05:43;3.70;;;1.63;;
74269;SDS011;62754;48.252;11.654;2023-03-23T08:08:09;3.63;;;1.50;;
74269;SDS011;62754;48.252;11.654;2023-03-23T08:10:35;3.90;;;1.63;;
74269;SDS011;62754;48.252;11.654;2023-03-23T08:13:01;4.25;;;1.70;;
74269;SDS011;62754;48.252;11.654;2023-03-23T08:15:28;3.28;;;1.80;;
74269;SDS011;62754;48.252;11.654;2023-03-23T08:17:54;3.88;;;2.00;;
74269;SDS011;62754;48.252;11.654;2023-03-23T08:20:20;4.70;;;1.90;;
74269;SDS011;62754;48.252;11.654;2023-03-23T08:22:51;5.40;;;1.77;;
74269;SDS011;62754;48.252;11.654;2023-03-23T08:25:18;4.35;;;2.03;;
74269;SDS011;62754;48.252;11.654;2023-03-23T08:30:11;3.65;;;1.90;;
74269;SDS011;62754;48.252;11.654;2023-03-23T08:32:39;5.53;;;1.80;;
74269;SDS011;62754;48.252;11.654;2023-03-23T08:37:32;4.80;;;1.83;;
74269;SDS011;62754;48.252;11.654;2023-03-23T08:39:57;4.10;;;1.70;;
74269;SDS011;62754;48.252;11.654;2023-03-23T08:42:24;2.88;;;1.58;;
74269;SDS011;62754;48.252;11.654;2023-03-23T08:44:50;4.95;;;1.67;;
74269;SDS011;62754;48.252;11.654;2023-03-23T08:49:42;4.38;;;1.83;;
74269;SDS011;62754;48.252;11.654;2023-03-23T08:52:08;5.80;;;1.77;;
74269;SDS011;62754;48.252;11.654;2023-03-23T08:54:34;3.67;;;2.00;;
74269;SDS011;62754;48.252;11.654;2023-03-23T08:57:01;4.72;;;1.55;;
74269;SDS011;62754;48.252;11.654;2023-03-23T08:59:27;3.92;;;1.85;;
74269;SDS011;62754;48.252;11.654;2023-03-23T09:01:53;8.20;;;2.10;;
74269;SDS011;62754;48.252;11.654;2023-03-23T09:04:20;3.95;;;1.77;;
74269;SDS011;62754;48.252;11.654;2023-03-23T09:06:46;6.13;;;1.90;;
74269;SDS011;62754;48.252;11.654;2023-03-23T09:14:10;3.70;;;1.58;;
74269;SDS011;62754;48.252;11.654;2023-03-23T09:16:36;5.82;;;1.77;;
74269;SDS011;62754;48.252;11.654;2023-03-23T09:19:02;4.15;;;1.85;;
74269;SDS011;62754;48.252;11.654;2023-03-23T09:21:28;4.18;;;1.92;;
74269;SDS011;62754;48.252;11.654;2023-03-23T09:23:54;10.57;;;2.85;;
74269;SDS011;62754;48.252;11.654;2023-03-23T09:26:20;10.40;;;2.70;;
74269;SDS011;62754;48.252;11.654;2023-03-23T09:28:46;6.25;;;1.88;;
74269;SDS011;62754;48.252;11.654;2023-03-23T09:31:12;4.00;;;1.73;;
74269;SDS011;62754;48.252;11.654;2023-03-23T09:33:38;3.38;;;1.60;;
74269;SDS011;62754;48.252;11.654;2023-03-23T09:36:04;3.72;;;1.42;;
74269;SDS011;62754;48.252;11.654;2023-03-23T09:41:01;6.25;;;1.50;;
74269;SDS011;62754;48.252;11.654;2023-03-23T09:43:36;4.57;;;1.45;;
74269;SDS011;62754;48.252;11.654;2023-03-23T09:48:59;4.70;;;1.38;;
74269;SDS011;62754;48.252;11.654;2023-03-23T09:51:32;4.18;;;1.58;;
74269;SDS011;62754;48.252;11.654;2023-03-23T09:56:57;5.38;;;1.65;;
74269;SDS011;62754;48.252;11.654;2023-03-23T10:02:04;4.18;;;1.65;;
74269;SDS011;62754;48.252;11.654;2023-03-23T10:04:36;2.75;;;1.42;;
74269;SDS011;62754;48.252;11.654;2023-03-23T10:07:13;3.67;;;1.40;;
74269;SDS011;62754;48.252;11.654;2023-03-23T10:09:42;4.22;;;1.58;;
74269;SDS011;62754;48.252;11.654;2023-03-23T10:12:16;3.58;;;1.70;;
74269;SDS011;62754;48.252;11.654;2023-03-23T10:14:56;5.45;;;1.80;;
74269;SDS011;62754;48.252;11.654;2023-03-23T10:22:35;4.88;;;2.50;;
74269;SDS011;62754;48.252;11.654;2023-03-23T10:25:14;4.65;;;1.88;;
74269;SDS011;62754;48.252;11.654;2023-03-23T10:32:54;8.23;;;2.85;;
74269;SDS011;62754;48.252;11.654;2023-03-23T10:35:37;3.67;;;1.75;;
74269;SDS011;62754;48.252;11.654;2023-03-23T10:38:11;4.53;;;1.70;;
74269;SDS011;62754;48.252;11.654;2023-03-23T10:40:47;3.38;;;1.60;;
74269;SDS011;62754;48.252;11.654;2023-03-23T10:43:15;5.40;;;2.10;;
74269;SDS011;62754;48.252;11.654;2023-03-23T10:45:41;5.95;;;2.00;;
74269;SDS011;62754;48.252;11.654;2023-03-23T10:48:12;4.40;;;1.65;;
74269;SDS011;62754;48.252;11.654;2023-03-23T10:50:51;4.38;;;1.95;;
74269;SDS011;62754;48.252;11.654;2023-03-23T10:53:22;4.22;;;1.80;;
74269;SDS011;62754;48.252;11.654;2023-03-23T10:55:55;4.50;;;1.75;;
74269;SDS011;62754;48.252;11.654;2023-03-23T10:58:23;4.93;;;1.60;;
74269;SDS011;62754;48.252;11.654;2023-03-23T11:00:51;5.97;;;1.90;;
74269;SDS011;62754;48.252;11.654;2023-03-23T11:05:48;5.78;;;1.90;;
74269;SDS011;62754;48.252;11.654;2023-03-23T11:08:19;3.45;;;1.70;;
74269;SDS011;62754;48.252;11.654;2023-03-23T11:10:51;4.22;;;1.63;;
74269;SDS011;62754;48.252;11.654;2023-03-23T11:13:22;4.43;;;1.88;;
74269;SDS011;62754;48.252;11.654;2023-03-23T11:15:53;3.25;;;1.90;;
74269;SDS011;62754;48.252;11.654;2023-03-23T11:18:20;5.90;;;2.00;;
74269;SDS011;62754;48.252;11.654;2023-03-23T11:20:56;5.63;;;2.95;;
74269;SDS011;62754;48.252;11.654;2023-03-23T11:23:30;3.70;;;2.13;;
74269;SDS011;62754;48.252;11.654;2023-03-23T11:28:58;3.78;;;1.80;;
74269;SDS011;62754;48.252;11.654;2023-03-23T11:31:32;4.28;;;1.83;;
74269;SDS011;62754;48.252;11.654;2023-03-23T12:23:05;4.80;;;2.13;;
74269;SDS011;62754;48.252;11.654;2023-03-23T12:28:34;5.70;;;2.00;;
74269;SDS011;62754;48.252;11.654;2023-03-23T12:42:11;4.20;;;1.70;;
74269;SDS011;62754;48.252;11.654;2023-03-23T12:45:18;2.67;;;1.45;;
74269;SDS011;62754;48.252;11.654;2023-03-23T12:47:59;7.28;;;2.00;;
74269;SDS011;62754;48.252;11.654;2023-03-23T12:50:32;4.32;;;1.52;;
74269;SDS011;62754;48.252;11.654;2023-03-23T12:58:46;4.43;;;1.63;;
74269;SDS011;62754;48.252;11.654;2023-03-23T13:01:19;5.95;;;2.90;;
74269;SDS011;62754;48.252;11.654;2023-03-23T13:03:58;5.05;;;2.22;;
74269;SDS011;62754;48.252;11.654;2023-03-23T13:11:40;3.70;;;1.70;;
74269;SDS011;62754;48.252;11.654;2023-03-23T13:16:37;4.72;;;1.75;;
74269;SDS011;62754;48.252;11.654;2023-03-23T13:22:17;5.72;;;1.60;;
74269;SDS011;62754;48.252;11.654;2023-03-23T13:24:52;3.72;;;1.73;;
74269;SDS011;62754;48.252;11.654;2023-03-23T13:27:27;5.28;;;1.60;;
74269;SDS011;62754;48.252;11.654;2023-03-23T13:29:55;3.92;;;1.52;;
74269;SDS011;62754;48.252;11.654;2023-03-23T13:32:22;7.22;;;2.08;;
74269;SDS011;62754;48.252;11.654;2023-03-23T13:35:12;4.95;;;2.50;;
74269;SDS011;62754;48.252;11.654;2023-03-23T13:37:46;4.95;;;1.58;;
74269;SDS011;62754;48.252;11.654;2023-03-23T13:40:16;3.53;;;1.40;;
74269;SDS011;62754;48.252;11.654;2023-03-23T13:42:54;2.78;;;1.30;;
74269;SDS011;62754;48.252;11.654;2023-03-23T13:45:36;2.35;;;1.20;;
74269;SDS011;62754;48.252;11.654;2023-03-23T13:50:44;2.80;;;1.38;;
74269;SDS011;62754;48.252;11.654;2023-03-23T13:53:21;2.55;;;1.30;;
74269;SDS011;62754;48.252;11.654;2023-03-23T13:55:51;3.00;;;1.30;;
74269;SDS011;62754;48.252;11.654;2023-03-23T13:58:28;4.55;;;1.40;;
74269;SDS011;62754;48.252;11.654;2023-03-23T14:01:11;4.85;;;1.15;;
74269;SDS011;62754;48.252;11.654;2023-03-23T14:03:39;5.28;;;1.20;;
74269;SDS011;62754;48.252;11.654;2023-03-23T14:06:13;2.92;;;1.42;;
74269;SDS011;62754;48.252;11.654;2023-03-23T14:08:44;4.68;;;1.63;;
74269;SDS011;62754;48.252;11.654;2023-03-23T14:11:14;5.55;;;1.55;;
74269;SDS011;62754;48.252;11.654;2023-03-23T14:19:03;3.00;;;1.10;;
74269;SDS011;62754;48.252;11.654;2023-03-23T14:21:39;2.92;;;1.13;;
74269;SDS011;62754;48.252;11.654;2023-03-23T14:24:16;4.57;;;1.38;;
74269;SDS011;62754;48.252;11.654;2023-03-23T14:26:45;5.32;;;1.50;;
74269;SDS011;62754;48.252;11.654;2023-03-23T14:29:11;6.57;;;2.10;;
74269;SDS011;62754;48.252;11.654;2023-03-23T14:31:38;3.88;;;1.40;;
74269;SDS011;62754;48.252;11.654;2023-03-23T14:34:13;1.95;;;1.05;;
74269;SDS011;62754;48.252;11.654;2023-03-23T14:36:40;3.53;;;1.10;;
74269;SDS011;62754;48.252;11.654;2023-03-23T14:41:42;4.03;;;1.20;;
74269;SDS011;62754;48.252;11.654;2023-03-23T14:44:10;2.00;;;1.10;;
74269;SDS011;62754;48.252;11.654;2023-03-23T14:46:39;3.15;;;1.33;;
74269;SDS011;62754;48.252;11.654;2023-03-23T14:49:10;5.07;;;1.00;;
74269;SDS011;62754;48.252;11.654;2023-03-23T14:51:52;4.93;;;1.50;;
74269;SDS011;62754;48.252;11.654;2023-03-23T14:54:26;3.47;;;1.25;;
74269;SDS011;62754;48.252;11.654;2023-03-23T14:56:53;2.15;;;1.20;;
74269;SDS011;62754;48.252;11.654;2023-03-23T14:59:20;5.70;;;1.40;;
74269;SDS011;62754;48.252;11.654;2023-03-23T15:01:49;3.50;;;2.30;;
74269;SDS011;62754;48.252;11.654;2023-03-23T15:04:23;3.63;;;1.55;;
74269;SDS011;62754;48.252;11.654;2023-03-23T15:07:01;4.38;;;1.58;;
74269;SDS011;62754;48.252;11.654;2023-03-23T15:09:28;4.20;;;1.50;;
74269;SDS011;62754;48.252;11.654;2023-03-23T15:14:27;3.78;;;1.33;;
74269;SDS011;62754;48.252;11.654;2023-03-23T15:16:56;3.72;;;1.10;;
74269;SDS011;62754;48.252;11.654;2023-03-23T15:19:25;5.00;;;1.40;;
74269;SDS011;62754;48.252;11.654;2023-03-23T15:24:43;3.22;;;1.30;;
74269;SDS011;62754;48.252;11.654;2023-03-23T15:29:45;3.60;;;1.40;;
74269;SDS011;62754;48.252;11.654;2023-03-23T15:32:12;3.17;;;1.40;;
74269;SDS011;62754;48.252;11.654;2023-03-23T15:34:38;3.40;;;1.27;;
74269;SDS011;62754;48.252;11.654;2023-03-23T15:37:04;2.85;;;1.30;;
74269;SDS011;62754;48.252;11.654;2023-03-23T15:39:42;3.00;;;1.50;;
74269;SDS011;62754;48.252;11.654;2023-03-23T15:42:25;3.67;;;1.30;;
74269;SDS011;62754;48.252;11.654;2023-03-23T15:52:35;3.53;;;1.48;;
74269;SDS011;62754;48.252;11.654;2023-03-23T15:55:01;3.33;;;1.38;;
74269;SDS011;62754;48.252;11.654;2023-03-23T15:57:43;3.00;;;1.27;;
74269;SDS011;62754;48.252;11.654;2023-03-23T16:00:09;3.17;;;1.35;;
74269;SDS011;62754;48.252;11.654;2023-03-23T16:02:36;4.00;;;1.42;;
74269;SDS011;62754;48.252;11.654;2023-03-23T16:05:01;4.97;;;1.40;;
74269;SDS011;62754;48.252;11.654;2023-03-23T16:07:27;4.43;;;1.30;;
74269;SDS011;62754;48.252;11.654;2023-03-23T16:09:59;4.93;;;1.40;;
74269;SDS011;62754;48.252;11.654;2023-03-23T16:12:25;3.70;;;1.75;;
74269;SDS011;62754;48.252;11.654;2023-03-23T16:14:51;3.85;;;1.30;;
74269;SDS011;62754;48.252;11.654;2023-03-23T16:17:19;2.17;;;1.00;;
74269;SDS011;62754;48.252;11.654;2023-03-23T16:19:44;3.42;;;1.08;;
74269;SDS011;62754;48.252;11.654;2023-03-23T16:22:13;3.58;;;1.52;;
74269;SDS011;62754;48.252;11.654;2023-03-23T16:24:42;3.63;;;1.23;;
74269;SDS011;62754;48.252;11.654;2023-03-23T16:27:08;5.82;;;1.45;;
74269;SDS011;62754;48.252;11.654;2023-03-23T16:29:34;2.67;;;1.20;;
74269;SDS011;62754;48.252;11.654;2023-03-23T16:32:00;4.38;;;1.70;;
74269;SDS011;62754;48.252;11.654;2023-03-23T16:34:26;5.40;;;1.52;;
74269;SDS011;62754;48.252;11.654;2023-03-23T16:36:51;3.03;;;1.77;;
74269;SDS011;62754;48.252;11.654;2023-03-23T16:39:17;3.17;;;1.27;;
74269;SDS011;62754;48.252;11.654;2023-03-23T16:41:43;8.80;;;1.75;;
74269;SDS011;62754;48.252;11.654;2023-03-23T16:44:12;3.83;;;1.60;;
74269;SDS011;62754;48.252;11.654;2023-03-23T16:46:38;3.65;;;1.45;;
74269;SDS011;62754;48.252;11.654;2023-03-23T16:49:03;3.78;;;1.50;;
74269;SDS011;62754;48.252;11.654;2023-03-23T16:51:29;3.00;;;1.45;;
74269;SDS011;62754;48.252;11.654;2023-03-23T16:54:13;2.85;;;1.20;;
74269;SDS011;62754;48.252;11.654;2023-03-23T16:56:39;2.92;;;1.33;;
74269;SDS011;62754;48.252;11.654;2023-03-23T16:59:08;4.50;;;1.67;;
74269;SDS011;62754;48.252;11.654;2023-03-23T17:01:36;3.72;;;1.50;;
74269;SDS011;62754;48.252;11.654;2023-03-23T17:04:14;3.40;;;1.45;;
74269;SDS011;62754;48.252;11.654;2023-03-23T17:06:40;3.92;;;1.52;;
74269;SDS011;62754;48.252;11.654;2023-03-23T17:09:06;3.05;;;1.30;;
74269;SDS011;62754;48.252;11.654;2023-03-23T17:11:32;3.35;;;1.38;;
74269;SDS011;62754;48.252;11.654;2023-03-23T17:13:57;2.95;;;1.55;;
74269;SDS011;62754;48.252;11.654;2023-03-23T17:16:25;4.03;;;2.20;;
74269;SDS011;62754;48.252;11.654;2023-03-23T17:18:51;3.97;;;1.73;;
74269;SDS011;62754;48.252;11.654;2023-03-23T17:21:27;5.95;;;1.80;;
74269;SDS011;62754;48.252;11.654;2023-03-23T17:23:55;2.95;;;1.45;;
74269;SDS011;62754;48.252;11.654;2023-03-23T17:26:22;5.50;;;1.50;;
74269;SDS011;62754;48.252;11.654;2023-03-23T17:29:11;4.47;;;1.90;;
74269;SDS011;62754;48.252;11.654;2023-03-23T17:31:37;4.07;;;1.92;;
74269;SDS011;62754;48.252;11.654;2023-03-23T17:34:03;5.32;;;2.10;;
74269;SDS011;62754;48.252;11.654;2023-03-23T17:36:29;4.32;;;1.70;;
74269;SDS011;62754;48.252;11.654;2023-03-23T17:38:54;3.55;;;1.60;;
74269;SDS011;62754;48.252;11.654;2023-03-23T17:41:20;4.22;;;1.60;;
74269;SDS011;62754;48.252;11.654;2023-03-23T17:43:46;4.18;;;1.80;;
74269;SDS011;62754;48.252;11.654;2023-03-23T17:46:12;3.80;;;1.80;;
74269;SDS011;62754;48.252;11.654;2023-03-23T17:48:38;4.30;;;1.80;;
74269;SDS011;62754;48.252;11.654;2023-03-23T17:51:04;3.72;;;2.03;;
74269;SDS011;62754;48.252;11.654;2023-03-23T17:53:31;3.83;;;2.08;;
74269;SDS011;62754;48.252;11.654;2023-03-23T17:55:59;3.42;;;1.58;;